Oakridge, Oregon
Current Conditions -  °F | °C
As of 6:54 AM on Thursday 23 Oct 2014 (Local Time) from KEUG Reporting Station
Light Rain Light Rain  
Wind Chill: 57°   Ceiling: 3900
Heat Index: 57°   Visibility: 6mi
Dew Point: 54°   Wind: 8mph
Humidity: 89%   Direction: 200°SSW
Pressure: 29.82"   Gusts: NA
Location:  43.75°N, 122.46°W
Report Text: KEUG 231354Z 20007KT 6SM -RA BR SCT021 SCT031 OVC039 14/12 A2982 RMK AO2 RAB11 SLP097 P0003 T01390122
Loading
Personal Weather Stations






























Interactive Weather Map
Tropical Storm Tracking
New forecast layout! Learn more

10-Day Weather Forecast

Advertisements
Track Severe Weather on mobile